Grey Forest, Texas
Current Conditions -  °F | °C
As of 10:35 AM on Friday 31 Oct 2014 (Local Time) from K5C1 Reporting Station
Clear Clear  
Wind Chill: 64°   Ceiling: Unl
Heat Index: 64°   Visibility: 10mi
Dew Point: 50°   Wind: 10mph
Humidity: 59%   Direction: 30°NNE
Pressure: 30.31"   Gusts: NA
Location:  29.6143°N, 98.747°W
Report Text: K5C1 311535Z AUTO 03009KT 360V060 10SM CLR 18/10 A3031 RMK AO1
Loading
Personal Weather Stations






























Interactive Weather Map
Tropical Storm Tracking
New forecast layout! Learn more

10-Day Weather Forecast

Advertisements
Track Severe Weather on mobile